Time;durP1;ratioP1;P1;durP2;ratioP2;P2;SDS_P1;SDS_P2;PMS_P1;PMS_P2;Temp;Humidity;BMP_temperature;BMP_pressure;BME280_temperature;BME280_humidity;BME280_pressure;Samples;Min_cycle;Max_cycle;Signal;HPM_P1;HPM_P2
2023/01/01 00:00:22;;;;;;;22.77;13.47;;;;;;;;;;10408757;28;20481;-61
2023/01/01 00:05:22;;;;;;;23.52;13.73;;;;;;;;;;10401536;28;20017;-62
2023/01/01 00:10:28;;;;;;;21.27;13.60;;;;;;;;;;10414212;28;20034;-62
2023/01/01 00:15:29;;;;;;;30.15;14.27;;;;;;;;;;10414100;28;20135;-62
2023/01/01 00:20:29;;;;;;;21.67;13.35;;;;;;;;;;10414096;28;20523;-61
2023/01/01 00:25:31;;;;;;;26.92;14.38;;;;;;;;;;10414185;28;20397;-62
2023/01/01 00:30:31;;;;;;;24.35;14.32;;;;;;;;;;10412354;28;20124;-61
2023/01/01 00:35:32;;;;;;;22.83;13.03;;;;;;;;;;10403921;28;20126;-61
2023/01/01 00:40:32;;;;;;;20.75;13.48;;;;;;;;;;10411579;28;20447;-61
2023/01/01 00:45:32;;;;;;;24.73;13.43;;;;;;;;;;10411474;28;20025;-61
2023/01/01 00:50:33;;;;;;;20.38;13.13;;;;;;;;;;10411267;28;20039;-62
2023/01/01 00:55:33;;;;;;;22.08;14.43;;;;;;;;;;10409177;28;20025;-61
2023/01/01 01:00:33;;;;;;;25.58;14.80;;;;;;;;;;10407029;28;20029;-61
2023/01/01 01:05:36;;;;;;;21.67;12.93;;;;;;;;;;10412403;28;20025;-62
2023/01/01 01:10:36;;;;;;;23.65;14.05;;;;;;;;;;10411764;28;20112;-62
2023/01/01 01:15:37;;;;;;;21.27;14.35;;;;;;;;;;10411758;28;20388;-61
2023/01/01 01:20:37;;;;;;;21.55;13.68;;;;;;;;;;10411565;28;20504;-61
2023/01/01 01:25:37;;;;;;;20.77;14.48;;;;;;;;;;10410074;28;20370;-61
2023/01/01 01:30:38;;;;;;;22.42;13.73;;;;;;;;;;10403511;28;20050;-61
2023/01/01 01:35:38;;;;;;;21.17;14.23;;;;;;;;;;10409691;28;20033;-61
2023/01/01 01:40:41;;;;;;;16.08;12.82;;;;;;;;;;10407098;28;20601;-61
2023/01/01 01:45:41;;;;;;;18.17;13.57;;;;;;;;;;10403009;28;20034;-61
2023/01/01 01:50:44;;;;;;;21.20;13.40;;;;;;;;;;10407374;28;20025;-61
2023/01/01 01:55:47;;;;;;;22.88;14.38;;;;;;;;;;10404227;28;20022;-60
2023/01/01 02:00:48;;;;;;;22.58;14.45;;;;;;;;;;10406074;28;20060;-61
2023/01/01 02:05:49;;;;;;;22.45;13.80;;;;;;;;;;10403431;28;20128;-61
2023/01/01 02:10:49;;;;;;;20.98;14.40;;;;;;;;;;10402481;28;20070;-61
2023/01/01 02:15:54;;;;;;;19.83;13.55;;;;;;;;;;10399883;28;20112;-62
2023/01/01 02:21:05;;;;;;;18.77;14.13;;;;;;;;;;10406335;28;20037;-62
2023/01/01 02:26:06;;;;;;;25.45;15.50;;;;;;;;;;10405603;28;20049;-62
2023/01/01 02:31:07;;;;;;;21.15;14.15;;;;;;;;;;10407329;28;20072;-62
2023/01/01 02:36:09;;;;;;;20.25;14.98;;;;;;;;;;10405599;28;20042;-61
2023/01/01 02:41:30;;;;;;;25.13;16.25;;;;;;;;;;10405871;28;20588;-62
2023/01/01 02:46:31;;;;;;;19.67;14.48;;;;;;;;;;10399069;28;20022;-62
2023/01/01 02:51:50;;;;;;;21.52;15.25;;;;;;;;;;10399578;28;20176;-62
2023/01/01 02:56:52;;;;;;;21.02;14.63;;;;;;;;;;10398485;28;20038;-61
2023/01/01 03:01:57;;;;;;;20.00;14.52;;;;;;;;;;10403591;28;20025;-61
2023/01/01 03:07:05;;;;;;;23.23;14.27;;;;;;;;;;10402728;28;20075;-61
2023/01/01 03:12:08;;;;;;;18.73;14.82;;;;;;;;;;10403394;28;20116;-62
2023/01/01 03:17:11;;;;;;;22.88;15.02;;;;;;;;;;10402987;28;20116;-61
2023/01/01 03:22:16;;;;;;;18.88;14.73;;;;;;;;;;10402935;28;20030;-61
2023/01/01 03:27:31;;;;;;;20.95;14.95;;;;;;;;;;10402172;28;20052;-62
2023/01/01 03:37:58;;;;;;;20.95;15.15;;;;;;;;;;10395164;28;20038;-61
2023/01/01 03:43:01;;;;;;;21.73;15.98;;;;;;;;;;10387090;28;20449;-61
2023/01/01 03:48:04;;;;;;;22.30;15.32;;;;;;;;;;10397521;28;20029;-61
2023/01/01 03:53:10;;;;;;;21.15;15.02;;;;;;;;;;10403489;28;20029;-61
2023/01/01 03:58:27;;;;;;;20.58;15.68;;;;;;;;;;10400635;28;20021;-61
2023/01/01 04:03:28;;;;;;;20.58;15.15;;;;;;;;;;10404610;28;20061;-61
2023/01/01 04:08:30;;;;;;;22.95;15.10;;;;;;;;;;10405257;28;20029;-61
2023/01/01 04:13:44;;;;;;;25.10;15.82;;;;;;;;;;10403073;28;20037;-62
2023/01/01 04:18:44;;;;;;;22.33;15.88;;;;;;;;;;10401806;28;20025;-62
2023/01/01 04:23:44;;;;;;;21.20;16.23;;;;;;;;;;10405267;28;20029;-61
2023/01/01 04:28:45;;;;;;;24.70;16.17;;;;;;;;;;10404598;28;20045;-61
2023/01/01 04:33:45;;;;;;;21.43;16.30;;;;;;;;;;10407807;28;20038;-60
2023/01/01 04:38:45;;;;;;;22.98;15.98;;;;;;;;;;10412975;28;20099;-61
2023/01/01 04:43:49;;;;;;;20.58;15.32;;;;;;;;;;10412541;28;20036;-61
2023/01/01 04:48:49;;;;;;;22.48;16.08;;;;;;;;;;10409114;28;20059;-61
2023/01/01 04:53:50;;;;;;;19.88;15.10;;;;;;;;;;10413064;28;20022;-60
2023/01/01 04:58:50;;;;;;;24.20;15.07;;;;;;;;;;10410349;28;20087;-61
2023/01/01 05:03:51;;;;;;;20.80;15.03;;;;;;;;;;10408973;28;20033;-60
2023/01/01 05:08:53;;;;;;;23.92;15.65;;;;;;;;;;10408979;28;20042;-60
2023/01/01 05:13:54;;;;;;;17.02;13.63;;;;;;;;;;10408122;28;20099;-60
2023/01/01 05:18:55;;;;;;;19.15;15.00;;;;;;;;;;10409398;28;20551;-61
2023/01/01 05:23:57;;;;;;;19.55;14.00;;;;;;;;;;10406297;28;20091;-61
2023/01/01 05:28:58;;;;;;;20.40;14.60;;;;;;;;;;10408620;28;20624;-61
2023/01/01 05:33:59;;;;;;;18.92;14.18;;;;;;;;;;10406564;28;20034;-60
2023/01/01 05:38:59;;;;;;;21.05;14.30;;;;;;;;;;10407125;28;20040;-60
2023/01/01 05:44:00;;;;;;;18.30;13.80;;;;;;;;;;10404561;28;20030;-61
2023/01/01 05:49:00;;;;;;;20.08;14.32;;;;;;;;;;10400159;28;20033;-61
2023/01/01 05:54:00;;;;;;;16.93;14.00;;;;;;;;;;10410559;28;20116;-62
2023/01/01 05:59:01;;;;;;;18.05;14.05;;;;;;;;;;10410232;28;20040;-62
2023/01/01 06:04:01;;;;;;;18.27;13.80;;;;;;;;;;10406458;28;20029;-61
2023/01/01 06:09:02;;;;;;;17.17;14.23;;;;;;;;;;10400669;28;20049;-61
2023/01/01 06:14:03;;;;;;;20.63;14.63;;;;;;;;;;10408318;28;20496;-61
2023/01/01 06:19:03;;;;;;;17.23;13.90;;;;;;;;;;10406175;28;20029;-61
2023/01/01 06:24:03;;;;;;;17.50;13.77;;;;;;;;;;10405828;28;20037;-61
2023/01/01 06:29:04;;;;;;;17.67;13.45;;;;;;;;;;10401716;28;20042;-61
2023/01/01 06:34:04;;;;;;;19.93;13.77;;;;;;;;;;10404111;28;20037;-60
2023/01/01 06:39:04;;;;;;;17.85;13.10;;;;;;;;;;10405573;28;20026;-61
2023/01/01 06:44:05;;;;;;;15.03;12.57;;;;;;;;;;10408330;28;20159;-61
2023/01/01 06:49:06;;;;;;;17.90;13.13;;;;;;;;;;10400391;28;20113;-61
2023/01/01 06:54:07;;;;;;;18.48;12.55;;;;;;;;;;10408150;28;20025;-62
2023/01/01 06:59:08;;;;;;;16.23;12.48;;;;;;;;;;10405766;28;20041;-61
2023/01/01 07:04:13;;;;;;;16.03;12.33;;;;;;;;;;10406447;28;20105;-61
2023/01/01 07:09:13;;;;;;;16.73;12.63;;;;;;;;;;10405766;28;20041;-59
2023/01/01 07:14:14;;;;;;;17.95;13.02;;;;;;;;;;10407876;28;20087;-60
2023/01/01 07:19:14;;;;;;;15.68;12.52;;;;;;;;;;10407856;28;20109;-60
2023/01/01 07:24:14;;;;;;;15.35;12.40;;;;;;;;;;10407101;28;20044;-60
2023/01/01 07:29:15;;;;;;;16.65;13.02;;;;;;;;;;10406103;28;20049;-61
2023/01/01 07:34:17;;;;;;;18.13;12.53;;;;;;;;;;10407148;28;20056;-60
2023/01/01 07:39:18;;;;;;;16.52;13.30;;;;;;;;;;10407046;28;20048;-60
2023/01/01 07:44:18;;;;;;;15.65;11.90;;;;;;;;;;10406811;28;20033;-60
2023/01/01 07:49:18;;;;;;;17.65;12.32;;;;;;;;;;10397238;28;20038;-61
2023/01/01 07:54:18;;;;;;;18.25;12.43;;;;;;;;;;10405421;28;20528;-61
2023/01/01 07:59:19;;;;;;;15.95;12.15;;;;;;;;;;10406109;28;20033;-61
2023/01/01 08:04:19;;;;;;;15.10;12.18;;;;;;;;;;10405125;28;20034;-62
2023/01/01 08:09:19;;;;;;;16.05;12.60;;;;;;;;;;10411750;28;20034;-62
2023/01/01 08:14:20;;;;;;;16.67;11.55;;;;;;;;;;10414483;28;20029;-62
2023/01/01 08:19:20;;;;;;;17.13;12.48;;;;;;;;;;10414599;28;20492;-62
2023/01/01 08:24:20;;;;;;;15.80;12.15;;;;;;;;;;10413631;28;20037;-62
2023/01/01 08:29:20;;;;;;;15.50;12.32;;;;;;;;;;10413363;28;20408;-62
2023/01/01 08:34:21;;;;;;;17.33;12.50;;;;;;;;;;10413664;28;20580;-62
2023/01/01 08:39:21;;;;;;;18.77;12.18;;;;;;;;;;10404707;28;20034;-61
2023/01/01 08:44:21;;;;;;;20.20;12.77;;;;;;;;;;10412198;28;20473;-60
2023/01/01 08:49:22;;;;;;;14.27;11.10;;;;;;;;;;10405064;28;20575;-62
2023/01/01 08:54:22;;;;;;;18.98;12.35;;;;;;;;;;10404397;28;20046;-62
2023/01/01 08:59:22;;;;;;;18.70;12.65;;;;;;;;;;10408574;28;20022;-61
2023/01/01 09:04:23;;;;;;;23.13;11.88;;;;;;;;;;10403912;28;20025;-61
2023/01/01 09:09:23;;;;;;;16.85;12.70;;;;;;;;;;10410302;28;20128;-62
2023/01/01 09:14:24;;;;;;;16.83;12.40;;;;;;;;;;10406971;28;20083;-62
2023/01/01 09:19:24;;;;;;;16.20;12.73;;;;;;;;;;10403506;28;20029;-62
2023/01/01 09:24:24;;;;;;;15.27;11.43;;;;;;;;;;10407217;28;20017;-62
2023/01/01 09:29:24;;;;;;;17.92;11.38;;;;;;;;;;10410700;28;20045;-62
2023/01/01 09:34:25;;;;;;;18.67;13.07;;;;;;;;;;10406206;28;20113;-63
2023/01/01 09:39:25;;;;;;;16.45;13.30;;;;;;;;;;10402374;28;20037;-63
2023/01/01 09:44:25;;;;;;;17.58;14.55;;;;;;;;;;10402590;28;20030;-61
2023/01/01 09:49:34;;;;;;;28.40;16.60;;;;;;;;;;10401683;28;20033;-64
2023/01/01 09:54:35;;;;;;;24.40;17.25;;;;;;;;;;10400585;28;20116;-59
2023/01/01 09:59:35;;;;;;;30.55;19.85;;;;;;;;;;10396587;28;20033;-59
2023/01/01 10:04:35;;;;;;;26.38;17.02;;;;;;;;;;10408391;28;20108;-61
2023/01/01 10:09:49;;;;;;;23.88;18.35;;;;;;;;;;10405758;28;20042;-59
2023/01/01 10:14:54;;;;;;;29.58;17.23;;;;;;;;;;10407551;28;20033;-60
2023/01/01 10:20:00;;;;;;;30.27;18.38;;;;;;;;;;10405657;28;20038;-64
2023/01/01 10:25:32;;;;;;;26.52;18.20;;;;;;;;;;10402954;28;20036;-62
2023/01/01 10:30:33;;;;;;;27.27;17.67;;;;;;;;;;10379150;28;20044;-60
2023/01/01 10:35:33;;;;;;;27.20;18.42;;;;;;;;;;10397529;28;20036;-61
2023/01/01 10:40:33;;;;;;;22.83;16.73;;;;;;;;;;10389054;28;20044;-61
2023/01/01 10:45:37;;;;;;;24.00;16.40;;;;;;;;;;10398754;28;20029;-62
2023/01/01 10:50:45;;;;;;;22.83;16.90;;;;;;;;;;10390390;28;20029;-66
2023/01/01 10:55:49;;;;;;;22.95;17.45;;;;;;;;;;10378206;28;20026;-62
2023/01/01 11:00:59;;;;;;;25.38;16.15;;;;;;;;;;10391590;28;20025;-61
2023/01/01 11:06:20;;;;;;;22.42;15.93;;;;;;;;;;10393527;28;20465;-65
2023/01/01 11:11:29;;;;;;;21.77;16.52;;;;;;;;;;10392979;28;20394;-63
2023/01/01 11:16:29;;;;;;;33.15;16.67;;;;;;;;;;10387297;28;20021;-63
2023/01/01 11:21:30;;;;;;;31.80;17.27;;;;;;;;;;10387063;28;20507;-64
2023/01/01 11:26:32;;;;;;;23.45;16.40;;;;;;;;;;10396250;28;20038;-63
2023/01/01 11:31:44;;;;;;;27.83;17.80;;;;;;;;;;10398198;28;20547;-65
2023/01/01 11:36:45;;;;;;;27.27;16.88;;;;;;;;;;10397482;28;20037;-64
2023/01/01 11:41:46;;;;;;;26.52;17.13;;;;;;;;;;10399155;28;20036;-64
2023/01/01 11:46:47;;;;;;;38.90;17.15;;;;;;;;;;10407702;28;20029;-63
2023/01/01 11:51:47;;;;;;;26.45;18.10;;;;;;;;;;10411005;28;20039;-64
2023/01/01 11:56:49;;;;;;;28.60;18.38;;;;;;;;;;10415089;28;20021;-64
2023/01/01 12:01:52;;;;;;;27.95;16.88;;;;;;;;;;10414891;28;20029;-64
2023/01/01 12:07:11;;;;;;;25.67;17.77;;;;;;;;;;10414989;28;20052;-64
2023/01/01 12:12:17;;;;;;;31.40;17.52;;;;;;;;;;10412281;28;20025;-64
2023/01/01 12:17:26;;;;;;;27.02;16.55;;;;;;;;;;10414318;28;20023;-64
2023/01/01 12:22:27;;;;;;;23.95;15.93;;;;;;;;;;10414279;28;20021;-64
2023/01/01 12:27:34;;;;;;;23.90;17.20;;;;;;;;;;10413656;28;20481;-64
2023/01/01 12:32:51;;;;;;;24.00;16.38;;;;;;;;;;10413886;28;20498;-64
2023/01/01 12:37:54;;;;;;;25.67;16.92;;;;;;;;;;10413878;28;20026;-63
2023/01/01 12:43:07;;;;;;;20.60;15.98;;;;;;;;;;10413523;28;20022;-64
2023/01/01 12:48:13;;;;;;;22.38;16.75;;;;;;;;;;10409543;28;20029;-64
2023/01/01 12:53:17;;;;;;;23.77;15.95;;;;;;;;;;10412477;28;20026;-63
2023/01/01 12:58:24;;;;;;;22.70;16.27;;;;;;;;;;10410436;28;20029;-64
2023/01/01 13:03:32;;;;;;;26.38;16.70;;;;;;;;;;10412811;28;20076;-63
2023/01/01 13:08:34;;;;;;;24.08;16.65;;;;;;;;;;10412111;28;20032;-64
2023/01/01 13:13:34;;;;;;;23.60;16.60;;;;;;;;;;10412546;28;20087;-64
2023/01/01 13:18:35;;;;;;;23.47;16.97;;;;;;;;;;10411936;28;20094;-64
2023/01/01 13:23:37;;;;;;;21.50;15.90;;;;;;;;;;10412464;28;20120;-64
2023/01/01 13:28:37;;;;;;;20.33;15.60;;;;;;;;;;10406881;28;21023;-64
2023/01/01 13:33:37;;;;;;;24.73;16.88;;;;;;;;;;10403911;28;20191;-64
2023/01/01 13:38:48;;;;;;;20.45;15.52;;;;;;;;;;10411949;28;20470;-64
2023/01/01 13:43:48;;;;;;;25.13;16.45;;;;;;;;;;10410699;28;20099;-63
2023/01/01 13:49:00;;;;;;;22.95;16.33;;;;;;;;;;10408178;28;20534;-63
2023/01/01 13:54:13;;;;;;;22.95;16.38;;;;;;;;;;10410677;28;20033;-64
2023/01/01 13:59:13;;;;;;;25.95;16.92;;;;;;;;;;10398936;28;20022;-64
2023/01/01 14:04:28;;;;;;;22.08;15.77;;;;;;;;;;10409373;28;20021;-63
2023/01/01 14:09:28;;;;;;;26.42;16.17;;;;;;;;;;10410224;28;20041;-63
2023/01/01 14:14:29;;;;;;;21.92;16.30;;;;;;;;;;10409231;28;20035;-64
2023/01/01 14:19:31;;;;;;;23.05;15.73;;;;;;;;;;10409560;28;20083;-63
2023/01/01 14:24:31;;;;;;;20.25;16.23;;;;;;;;;;10409370;28;20340;-64
2023/01/01 14:29:31;;;;;;;21.17;15.97;;;;;;;;;;10408655;28;20183;-63
2023/01/01 14:34:32;;;;;;;19.08;15.40;;;;;;;;;;10408941;28;20029;-64
2023/01/01 14:39:33;;;;;;;25.80;16.58;;;;;;;;;;10408477;28;20037;-63
2023/01/01 14:44:38;;;;;;;22.73;16.98;;;;;;;;;;10409023;28;20025;-63
2023/01/01 14:49:38;;;;;;;19.55;15.18;;;;;;;;;;10405756;28;20029;-63
2023/01/01 14:54:41;;;;;;;23.70;15.40;;;;;;;;;;10407997;28;20075;-63
2023/01/01 14:59:48;;;;;;;19.08;15.75;;;;;;;;;;10408258;28;20295;-63
2023/01/01 15:04:49;;;;;;;19.25;14.77;;;;;;;;;;10408302;28;20380;-64
2023/01/01 15:09:50;;;;;;;21.75;15.50;;;;;;;;;;10407603;28;20022;-64
2023/01/01 15:14:51;;;;;;;21.35;15.80;;;;;;;;;;10407429;28;20049;-64
2023/01/01 15:20:05;;;;;;;21.88;15.32;;;;;;;;;;10407348;28;20025;-64
2023/01/01 15:25:10;;;;;;;22.98;15.52;;;;;;;;;;10408182;28;20112;-62
2023/01/01 15:30:23;;;;;;;22.73;16.40;;;;;;;;;;10407515;28;20513;-64
2023/01/01 15:35:33;;;;;;;20.30;14.70;;;;;;;;;;10407761;28;20037;-64
2023/01/01 15:40:34;;;;;;;19.88;15.25;;;;;;;;;;10407648;28;20096;-64
2023/01/01 15:45:34;;;;;;;20.58;14.93;;;;;;;;;;10407544;28;20029;-63
2023/01/01 15:50:38;;;;;;;24.67;15.20;;;;;;;;;;10403945;28;20048;-63
2023/01/01 15:55:42;;;;;;;18.10;14.13;;;;;;;;;;10407103;28;20462;-63
2023/01/01 16:00:42;;;;;;;18.35;15.43;;;;;;;;;;10394418;28;20072;-63
2023/01/01 16:05:46;;;;;;;22.63;15.37;;;;;;;;;;10406801;28;20061;-64
2023/01/01 16:10:47;;;;;;;18.30;14.50;;;;;;;;;;10406311;28;20026;-64
2023/01/01 16:15:50;;;;;;;19.67;14.75;;;;;;;;;;10406259;28;20025;-63
2023/01/01 16:20:51;;;;;;;19.95;14.73;;;;;;;;;;10407037;28;20029;-63
2023/01/01 16:25:51;;;;;;;20.83;15.20;;;;;;;;;;10406470;28;20026;-64
2023/01/01 16:30:51;;;;;;;20.15;13.80;;;;;;;;;;10412296;28;20045;-63
2023/01/01 16:35:51;;;;;;;20.73;14.23;;;;;;;;;;10413845;28;20021;-64
2023/01/01 16:40:52;;;;;;;20.23;14.50;;;;;;;;;;10413329;28;20100;-63
2023/01/01 16:45:52;;;;;;;18.20;13.40;;;;;;;;;;10413536;28;20029;-63
2023/01/01 16:50:52;;;;;;;19.95;14.20;;;;;;;;;;10409206;28;20068;-64
2023/01/01 16:55:53;;;;;;;21.00;14.50;;;;;;;;;;10412749;28;20099;-64
2023/01/01 17:00:58;;;;;;;18.10;13.77;;;;;;;;;;10412694;28;20072;-64
2023/01/01 17:06:01;;;;;;;20.02;13.75;;;;;;;;;;10412269;28;20029;-64
2023/01/01 17:11:02;;;;;;;18.60;13.75;;;;;;;;;;10412218;28;20033;-63
2023/01/01 17:16:03;;;;;;;17.48;13.45;;;;;;;;;;10411847;28;20393;-63
2023/01/01 17:21:04;;;;;;;19.57;13.90;;;;;;;;;;10411971;28;20032;-64
2023/01/01 17:26:23;;;;;;;20.55;14.43;;;;;;;;;;10411568;28;20372;-64
2023/01/01 17:31:23;;;;;;;18.63;13.50;;;;;;;;;;10408438;28;20296;-63
2023/01/01 17:36:26;;;;;;;17.60;13.40;;;;;;;;;;10409518;28;20169;-64
2023/01/01 17:41:48;;;;;;;19.20;14.23;;;;;;;;;;10408848;28;20033;-63
2023/01/01 17:46:48;;;;;;;19.77;13.43;;;;;;;;;;10398951;28;20432;-64
2023/01/01 17:51:48;;;;;;;20.98;12.45;;;;;;;;;;10397103;28;20029;-63
2023/01/01 17:56:49;;;;;;;19.77;12.18;;;;;;;;;;10404996;28;20492;-64
2023/01/01 18:01:49;;;;;;;15.70;11.43;;;;;;;;;;10410217;28;20084;-63
2023/01/01 18:06:49;;;;;;;17.38;12.27;;;;;;;;;;10409965;28;20519;-63
2023/01/01 18:11:50;;;;;;;19.30;11.70;;;;;;;;;;10409613;28;20037;-62
2023/01/01 18:16:50;;;;;;;19.55;12.13;;;;;;;;;;10409710;28;20018;-62
2023/01/01 18:21:50;;;;;;;19.55;12.80;;;;;;;;;;10408139;28;20052;-62
2023/01/01 18:26:51;;;;;;;18.40;11.05;;;;;;;;;;10407995;28;20025;-62
2023/01/01 18:31:51;;;;;;;18.70;12.53;;;;;;;;;;10406112;28;20049;-61
2023/01/01 18:36:53;;;;;;;18.65;11.40;;;;;;;;;;10391026;28;20066;-61
2023/01/01 18:41:53;;;;;;;20.58;11.75;;;;;;;;;;10380953;28;20473;-63
2023/01/01 18:46:56;;;;;;;20.77;12.05;;;;;;;;;;10391365;28;20021;-62
2023/01/01 18:52:17;;;;;;;18.08;11.48;;;;;;;;;;10393688;28;20057;-62
2023/01/01 18:57:21;;;;;;;25.60;13.43;;;;;;;;;;10405235;28;20081;-63
2023/01/01 19:02:33;;;;;;;27.02;13.35;;;;;;;;;;10407971;28;20053;-63
2023/01/01 19:07:33;;;;;;;27.45;12.80;;;;;;;;;;10407654;28;20501;-63
2023/01/01 19:12:33;;;;;;;30.80;12.85;;;;;;;;;;10407439;28;20025;-64
2023/01/01 19:17:34;;;;;;;21.55;12.07;;;;;;;;;;10407811;28;20017;-63
2023/01/01 19:22:34;;;;;;;32.43;12.33;;;;;;;;;;10407385;28;20124;-63
2023/01/01 19:27:34;;;;;;;23.57;11.33;;;;;;;;;;10407304;28;20017;-64
2023/01/01 19:32:35;;;;;;;19.93;11.70;;;;;;;;;;10407433;28;20033;-64
2023/01/01 19:37:35;;;;;;;21.35;11.55;;;;;;;;;;10407055;28;20446;-63
2023/01/01 19:42:35;;;;;;;20.77;11.73;;;;;;;;;;10407022;28;20104;-61
2023/01/01 19:47:37;;;;;;;17.05;11.43;;;;;;;;;;10403003;28;20029;-62
2023/01/01 19:52:38;;;;;;;18.77;11.50;;;;;;;;;;10407171;28;20485;-61
2023/01/01 19:57:38;;;;;;;19.38;10.70;;;;;;;;;;10406755;28;20021;-62
2023/01/01 20:02:38;;;;;;;17.08;11.38;;;;;;;;;;10408038;28;20035;-62
2023/01/01 20:07:38;;;;;;;19.73;11.73;;;;;;;;;;10414578;28;20204;-61
2023/01/01 20:12:39;;;;;;;19.45;11.05;;;;;;;;;;10414704;28;20036;-62
2023/01/01 20:17:39;;;;;;;16.85;11.05;;;;;;;;;;10414547;28;20173;-61
2023/01/01 20:22:40;;;;;;;17.55;10.45;;;;;;;;;;10414388;28;20037;-62
2023/01/01 20:29:17;;;;;;;20.08;11.85;;;;;;;;;;10413546;28;20049;-61
2023/01/01 20:33:00;;;;;;;15.38;11.35;;;;;;;;;;10410657;28;20049;-61
2023/01/01 20:38:01;;;;;;;19.92;11.45;;;;;;;;;;10411228;28;20029;-61
2023/01/01 20:43:01;;;;;;;16.88;11.32;;;;;;;;;;10404891;28;20373;-62
2023/01/01 20:48:01;;;;;;;18.53;11.63;;;;;;;;;;10401910;28;20534;-62
2023/01/01 20:53:01;;;;;;;15.43;10.70;;;;;;;;;;10397255;28;20036;-61
2023/01/01 20:58:02;;;;;;;17.58;11.02;;;;;;;;;;10392184;28;20370;-62
2023/01/01 21:03:02;;;;;;;14.83;10.80;;;;;;;;;;10382964;28;20497;-62
2023/01/01 21:08:02;;;;;;;14.20;10.90;;;;;;;;;;10395395;28;20036;-61
2023/01/01 21:13:03;;;;;;;19.63;11.10;;;;;;;;;;10393094;28;20055;-62
2023/01/01 21:18:04;;;;;;;15.63;10.98;;;;;;;;;;10390231;28;21889;-63
2023/01/01 21:23:08;;;;;;;18.33;11.57;;;;;;;;;;10403611;28;20075;-63
2023/01/01 21:28:11;;;;;;;16.63;11.18;;;;;;;;;;10368862;28;1132687;-63
2023/01/01 21:33:18;;;;;;;16.05;11.25;;;;;;;;;;10409966;28;20393;-63
2023/01/01 21:38:21;;;;;;;19.08;11.40;;;;;;;;;;10411242;28;20195;-61
2023/01/01 21:43:21;;;;;;;14.82;10.82;;;;;;;;;;10411740;28;20025;-63
2023/01/01 21:48:26;;;;;;;16.42;10.57;;;;;;;;;;10406495;28;20044;-63
2023/01/01 21:53:31;;;;;;;14.15;10.13;;;;;;;;;;10406179;28;20036;-62
2023/01/01 22:04:10;;;;;;;15.55;10.77;;;;;;;;;;10410657;28;20041;-63
2023/01/01 22:09:33;;;;;;;14.87;11.17;;;;;;;;;;10399615;28;20037;-63
2023/01/01 22:14:36;;;;;;;13.90;10.73;;;;;;;;;;10394551;28;20102;-63
2023/01/01 22:19:37;;;;;;;14.98;10.85;;;;;;;;;;10398969;28;20481;-63
2023/01/01 22:24:37;;;;;;;13.97;10.37;;;;;;;;;;10391482;28;20038;-63
2023/01/01 22:29:37;;;;;;;12.73;10.23;;;;;;;;;;10403391;28;20057;-63
2023/01/01 22:34:37;;;;;;;15.50;10.18;;;;;;;;;;10398152;28;20112;-63
2023/01/01 22:39:38;;;;;;;18.40;11.18;;;;;;;;;;10377734;28;20382;-63
2023/01/01 22:44:38;;;;;;;16.00;10.27;;;;;;;;;;10393837;28;20037;-62
2023/01/01 22:49:39;;;;;;;15.80;10.77;;;;;;;;;;10395202;28;20036;-61
2023/01/01 22:54:40;;;;;;;15.25;10.98;;;;;;;;;;10406044;28;20029;-62
2023/01/01 22:59:40;;;;;;;23.67;11.93;;;;;;;;;;10401497;28;20021;-61
2023/01/01 23:04:40;;;;;;;15.95;11.05;;;;;;;;;;10407266;28;20026;-62
2023/01/01 23:09:41;;;;;;;16.60;10.85;;;;;;;;;;10386602;28;20025;-61
2023/01/01 23:19:59;;;;;;;22.23;11.90;;;;;;;;;;10407512;28;20491;-62
2023/01/01 23:25:00;;;;;;;17.95;10.93;;;;;;;;;;10395650;28;20025;-61
2023/01/01 23:30:01;;;;;;;18.65;9.93;;;;;;;;;;10407416;28;20528;-61
2023/01/01 23:35:01;;;;;;;15.52;10.40;;;;;;;;;;10407316;28;20056;-62
2023/01/01 23:40:02;;;;;;;14.82;10.15;;;;;;;;;;10406233;28;20021;-62
2023/01/01 23:45:02;;;;;;;20.13;10.97;;;;;;;;;;10407445;28;20040;-62
2023/01/01 23:50:03;;;;;;;17.00;9.68;;;;;;;;;;10403795;28;20988;-61
2023/01/01 23:55:03;;;;;;;16.60;10.23;;;;;;;;;;10407206;28;20037;-61
